sensor_id;sensor_type;location;lat;lon;timestamp;P1;durP1;ratioP1;P2;durP2;ratioP2
76393;SDS011;65216;51.090;-115.352;2023-06-24T00:01:33;8.70;;;1.20;;
76393;SDS011;65216;51.090;-115.352;2023-06-24T00:04:01;8.10;;;1.10;;
76393;SDS011;65216;51.090;-115.352;2023-06-24T00:06:31;6.50;;;1.20;;
76393;SDS011;65216;51.090;-115.352;2023-06-24T00:08:57;9.70;;;1.20;;
76393;SDS011;65216;51.090;-115.352;2023-06-24T00:11:30;7.30;;;1.20;;
76393;SDS011;65216;51.090;-115.352;2023-06-24T00:13:57;14.10;;;1.50;;
76393;SDS011;65216;51.090;-115.352;2023-06-24T00:16:25;7.60;;;1.00;;
76393;SDS011;65216;51.090;-115.352;2023-06-24T00:18:56;8.30;;;1.40;;
76393;SDS011;65216;51.090;-115.352;2023-06-24T00:21:25;11.00;;;1.20;;
76393;SDS011;65216;51.090;-115.352;2023-06-24T00:23:59;7.40;;;1.20;;
76393;SDS011;65216;51.090;-115.352;2023-06-24T00:26:31;10.20;;;1.20;;
76393;SDS011;65216;51.090;-115.352;2023-06-24T00:29:21;10.30;;;1.30;;
76393;SDS011;65216;51.090;-115.352;2023-06-24T00:31:48;13.20;;;1.30;;
76393;SDS011;65216;51.090;-115.352;2023-06-24T00:34:15;12.30;;;1.30;;
76393;SDS011;65216;51.090;-115.352;2023-06-24T00:36:48;10.50;;;1.60;;
76393;SDS011;65216;51.090;-115.352;2023-06-24T00:39:18;11.40;;;1.80;;
76393;SDS011;65216;51.090;-115.352;2023-06-24T00:41:48;9.90;;;1.40;;
76393;SDS011;65216;51.090;-115.352;2023-06-24T00:44:15;7.50;;;1.60;;
76393;SDS011;65216;51.090;-115.352;2023-06-24T00:46:45;8.20;;;1.50;;
76393;SDS011;65216;51.090;-115.352;2023-06-24T00:49:15;11.20;;;1.40;;
76393;SDS011;65216;51.090;-115.352;2023-06-24T00:51:45;7.00;;;1.30;;
76393;SDS011;65216;51.090;-115.352;2023-06-24T00:54:17;8.40;;;1.60;;
76393;SDS011;65216;51.090;-115.352;2023-06-24T00:56:46;9.60;;;1.30;;
76393;SDS011;65216;51.090;-115.352;2023-06-24T00:59:15;12.80;;;2.00;;
76393;SDS011;65216;51.090;-115.352;2023-06-24T01:01:43;10.10;;;1.50;;
76393;SDS011;65216;51.090;-115.352;2023-06-24T01:04:12;10.00;;;1.50;;
76393;SDS011;65216;51.090;-115.352;2023-06-24T01:06:40;10.20;;;1.80;;
76393;SDS011;65216;51.090;-115.352;2023-06-24T01:09:15;9.60;;;1.40;;
76393;SDS011;65216;51.090;-115.352;2023-06-24T01:11:42;11.50;;;1.20;;
76393;SDS011;65216;51.090;-115.352;2023-06-24T01:14:18;10.90;;;1.40;;
76393;SDS011;65216;51.090;-115.352;2023-06-24T01:16:51;10.30;;;1.60;;
76393;SDS011;65216;51.090;-115.352;2023-06-24T01:19:44;11.40;;;1.20;;
76393;SDS011;65216;51.090;-115.352;2023-06-24T01:22:59;7.80;;;1.10;;
76393;SDS011;65216;51.090;-115.352;2023-06-24T01:31:51;8.50;;;1.60;;
76393;SDS011;65216;51.090;-115.352;2023-06-24T01:35:00;7.20;;;1.20;;
76393;SDS011;65216;51.090;-115.352;2023-06-24T01:37:41;12.90;;;1.70;;
76393;SDS011;65216;51.090;-115.352;2023-06-24T01:40:34;5.90;;;1.10;;
76393;SDS011;65216;51.090;-115.352;2023-06-24T01:43:08;5.10;;;1.10;;
76393;SDS011;65216;51.090;-115.352;2023-06-24T01:45:50;8.40;;;1.10;;
76393;SDS011;65216;51.090;-115.352;2023-06-24T01:48:34;7.00;;;1.30;;
76393;SDS011;65216;51.090;-115.352;2023-06-24T01:51:15;9.70;;;1.50;;
76393;SDS011;65216;51.090;-115.352;2023-06-24T01:54:00;8.20;;;1.40;;
76393;SDS011;65216;51.090;-115.352;2023-06-24T01:56:33;8.90;;;1.60;;
76393;SDS011;65216;51.090;-115.352;2023-06-24T01:59:03;10.60;;;1.20;;
76393;SDS011;65216;51.090;-115.352;2023-06-24T02:01:35;5.40;;;1.30;;
76393;SDS011;65216;51.090;-115.352;2023-06-24T02:04:08;7.30;;;1.20;;
76393;SDS011;65216;51.090;-115.352;2023-06-24T02:06:37;4.80;;;1.10;;
76393;SDS011;65216;51.090;-115.352;2023-06-24T02:09:07;8.80;;;1.50;;
76393;SDS011;65216;51.090;-115.352;2023-06-24T02:11:39;7.90;;;1.20;;
76393;SDS011;65216;51.090;-115.352;2023-06-24T02:14:10;10.10;;;1.10;;
76393;SDS011;65216;51.090;-115.352;2023-06-24T02:16:42;9.40;;;1.30;;
76393;SDS011;65216;51.090;-115.352;2023-06-24T02:19:11;8.70;;;1.30;;
76393;SDS011;65216;51.090;-115.352;2023-06-24T02:21:44;10.90;;;1.40;;
76393;SDS011;65216;51.090;-115.352;2023-06-24T02:24:12;9.80;;;1.10;;
76393;SDS011;65216;51.090;-115.352;2023-06-24T02:26:40;9.70;;;1.40;;
76393;SDS011;65216;51.090;-115.352;2023-06-24T02:29:11;10.70;;;1.30;;
76393;SDS011;65216;51.090;-115.352;2023-06-24T02:31:40;7.00;;;1.10;;
76393;SDS011;65216;51.090;-115.352;2023-06-24T02:34:07;8.40;;;1.20;;
76393;SDS011;65216;51.090;-115.352;2023-06-24T02:36:34;10.30;;;1.30;;
76393;SDS011;65216;51.090;-115.352;2023-06-24T02:39:01;9.10;;;1.50;;
76393;SDS011;65216;51.090;-115.352;2023-06-24T02:41:29;6.90;;;1.10;;
76393;SDS011;65216;51.090;-115.352;2023-06-24T02:43:59;5.40;;;1.00;;
76393;SDS011;65216;51.090;-115.352;2023-06-24T02:46:30;7.30;;;1.20;;
76393;SDS011;65216;51.090;-115.352;2023-06-24T02:48:59;5.70;;;1.10;;
76393;SDS011;65216;51.090;-115.352;2023-06-24T02:51:26;10.40;;;1.50;;
76393;SDS011;65216;51.090;-115.352;2023-06-24T02:53:54;6.90;;;1.00;;
76393;SDS011;65216;51.090;-115.352;2023-06-24T02:56:25;8.20;;;1.10;;
76393;SDS011;65216;51.090;-115.352;2023-06-24T02:58:54;7.30;;;1.10;;
76393;SDS011;65216;51.090;-115.352;2023-06-24T03:01:21;8.00;;;1.20;;
76393;SDS011;65216;51.090;-115.352;2023-06-24T03:03:55;6.10;;;1.20;;
76393;SDS011;65216;51.090;-115.352;2023-06-24T03:06:23;8.00;;;1.00;;
76393;SDS011;65216;51.090;-115.352;2023-06-24T03:08:52;11.80;;;1.50;;
76393;SDS011;65216;51.090;-115.352;2023-06-24T03:11:19;5.80;;;1.10;;
76393;SDS011;65216;51.090;-115.352;2023-06-24T03:13:47;7.90;;;1.00;;
76393;SDS011;65216;51.090;-115.352;2023-06-24T03:16:16;7.30;;;1.10;;
76393;SDS011;65216;51.090;-115.352;2023-06-24T03:18:44;9.10;;;1.40;;
76393;SDS011;65216;51.090;-115.352;2023-06-24T03:21:11;6.80;;;1.10;;
76393;SDS011;65216;51.090;-115.352;2023-06-24T03:23:41;5.50;;;1.00;;
76393;SDS011;65216;51.090;-115.352;2023-06-24T03:26:11;4.20;;;1.00;;
76393;SDS011;65216;51.090;-115.352;2023-06-24T03:28:40;9.70;;;0.90;;
76393;SDS011;65216;51.090;-115.352;2023-06-24T03:31:08;9.90;;;1.30;;
76393;SDS011;65216;51.090;-115.352;2023-06-24T03:33:35;6.60;;;1.10;;
76393;SDS011;65216;51.090;-115.352;2023-06-24T03:36:02;5.30;;;1.10;;
76393;SDS011;65216;51.090;-115.352;2023-06-24T03:38:32;3.90;;;1.10;;
76393;SDS011;65216;51.090;-115.352;2023-06-24T03:40:59;5.30;;;1.00;;
76393;SDS011;65216;51.090;-115.352;2023-06-24T03:43:26;4.80;;;0.90;;
76393;SDS011;65216;51.090;-115.352;2023-06-24T03:45:55;7.70;;;1.10;;
76393;SDS011;65216;51.090;-115.352;2023-06-24T03:48:22;4.10;;;1.10;;
76393;SDS011;65216;51.090;-115.352;2023-06-24T03:50:59;3.90;;;1.00;;
76393;SDS011;65216;51.090;-115.352;2023-06-24T03:53:37;6.60;;;1.10;;
76393;SDS011;65216;51.090;-115.352;2023-06-24T03:56:05;4.70;;;0.90;;
76393;SDS011;65216;51.090;-115.352;2023-06-24T03:58:32;5.00;;;1.20;;
76393;SDS011;65216;51.090;-115.352;2023-06-24T04:01:02;5.50;;;1.10;;
76393;SDS011;65216;51.090;-115.352;2023-06-24T04:03:30;5.60;;;1.20;;
76393;SDS011;65216;51.090;-115.352;2023-06-24T04:06:01;6.00;;;1.20;;
76393;SDS011;65216;51.090;-115.352;2023-06-24T04:08:28;3.90;;;0.90;;
76393;SDS011;65216;51.090;-115.352;2023-06-24T04:10:58;3.60;;;1.00;;
76393;SDS011;65216;51.090;-115.352;2023-06-24T04:13:26;4.80;;;1.20;;
76393;SDS011;65216;51.090;-115.352;2023-06-24T04:15:53;3.90;;;0.90;;
76393;SDS011;65216;51.090;-115.352;2023-06-24T04:18:20;2.90;;;1.00;;
76393;SDS011;65216;51.090;-115.352;2023-06-24T04:20:47;5.00;;;1.00;;
76393;SDS011;65216;51.090;-115.352;2023-06-24T04:23:14;4.10;;;1.00;;
76393;SDS011;65216;51.090;-115.352;2023-06-24T04:25:42;4.40;;;1.10;;
76393;SDS011;65216;51.090;-115.352;2023-06-24T04:28:09;3.90;;;1.10;;
76393;SDS011;65216;51.090;-115.352;2023-06-24T04:30:37;4.30;;;0.90;;
76393;SDS011;65216;51.090;-115.352;2023-06-24T04:33:05;4.30;;;0.90;;
76393;SDS011;65216;51.090;-115.352;2023-06-24T04:35:35;4.30;;;1.10;;
76393;SDS011;65216;51.090;-115.352;2023-06-24T04:38:01;3.30;;;1.20;;
76393;SDS011;65216;51.090;-115.352;2023-06-24T04:40:28;3.60;;;1.20;;
76393;SDS011;65216;51.090;-115.352;2023-06-24T04:42:59;6.90;;;1.60;;
76393;SDS011;65216;51.090;-115.352;2023-06-24T04:45:26;3.90;;;1.40;;
76393;SDS011;65216;51.090;-115.352;2023-06-24T04:47:53;3.30;;;1.30;;
76393;SDS011;65216;51.090;-115.352;2023-06-24T04:50:20;4.70;;;1.50;;
76393;SDS011;65216;51.090;-115.352;2023-06-24T04:52:53;4.30;;;1.30;;
76393;SDS011;65216;51.090;-115.352;2023-06-24T04:55:22;4.00;;;1.50;;
76393;SDS011;65216;51.090;-115.352;2023-06-24T04:57:50;5.20;;;1.20;;
76393;SDS011;65216;51.090;-115.352;2023-06-24T05:00:17;4.20;;;1.20;;
76393;SDS011;65216;51.090;-115.352;2023-06-24T05:02:44;5.60;;;1.20;;
76393;SDS011;65216;51.090;-115.352;2023-06-24T05:05:11;3.20;;;1.30;;
76393;SDS011;65216;51.090;-115.352;2023-06-24T05:07:38;2.20;;;0.80;;
76393;SDS011;65216;51.090;-115.352;2023-06-24T05:10:08;2.90;;;1.20;;
76393;SDS011;65216;51.090;-115.352;2023-06-24T05:12:35;3.70;;;1.20;;
76393;SDS011;65216;51.090;-115.352;2023-06-24T05:15:02;3.00;;;1.20;;
76393;SDS011;65216;51.090;-115.352;2023-06-24T05:17:29;3.20;;;1.20;;
76393;SDS011;65216;51.090;-115.352;2023-06-24T05:19:56;5.10;;;1.40;;
76393;SDS011;65216;51.090;-115.352;2023-06-24T05:22:23;5.40;;;1.30;;
76393;SDS011;65216;51.090;-115.352;2023-06-24T05:24:50;3.40;;;1.10;;
76393;SDS011;65216;51.090;-115.352;2023-06-24T05:27:17;3.40;;;1.20;;
76393;SDS011;65216;51.090;-115.352;2023-06-24T05:29:44;4.10;;;1.30;;
76393;SDS011;65216;51.090;-115.352;2023-06-24T05:32:11;3.60;;;1.10;;
76393;SDS011;65216;51.090;-115.352;2023-06-24T05:34:38;3.00;;;1.20;;
76393;SDS011;65216;51.090;-115.352;2023-06-24T05:37:05;4.20;;;1.10;;
76393;SDS011;65216;51.090;-115.352;2023-06-24T05:39:32;4.30;;;1.10;;
76393;SDS011;65216;51.090;-115.352;2023-06-24T05:41:59;2.80;;;1.10;;
76393;SDS011;65216;51.090;-115.352;2023-06-24T05:44:26;3.10;;;1.10;;
76393;SDS011;65216;51.090;-115.352;2023-06-24T05:46:53;3.40;;;1.10;;
76393;SDS011;65216;51.090;-115.352;2023-06-24T05:49:19;4.60;;;1.40;;
76393;SDS011;65216;51.090;-115.352;2023-06-24T05:51:50;3.90;;;1.20;;
76393;SDS011;65216;51.090;-115.352;2023-06-24T05:54:17;2.70;;;1.20;;
76393;SDS011;65216;51.090;-115.352;2023-06-24T05:56:43;3.60;;;1.20;;
76393;SDS011;65216;51.090;-115.352;2023-06-24T05:59:10;3.10;;;1.10;;
76393;SDS011;65216;51.090;-115.352;2023-06-24T06:01:37;2.60;;;1.10;;
76393;SDS011;65216;51.090;-115.352;2023-06-24T06:04:07;3.10;;;1.20;;
76393;SDS011;65216;51.090;-115.352;2023-06-24T06:06:34;3.00;;;1.20;;
76393;SDS011;65216;51.090;-115.352;2023-06-24T06:09:01;2.90;;;1.30;;
76393;SDS011;65216;51.090;-115.352;2023-06-24T06:11:30;2.90;;;1.20;;
76393;SDS011;65216;51.090;-115.352;2023-06-24T06:14:00;4.00;;;1.30;;
76393;SDS011;65216;51.090;-115.352;2023-06-24T06:16:27;3.30;;;1.40;;
76393;SDS011;65216;51.090;-115.352;2023-06-24T06:18:59;2.80;;;1.20;;
76393;SDS011;65216;51.090;-115.352;2023-06-24T06:21:26;4.30;;;1.30;;
76393;SDS011;65216;51.090;-115.352;2023-06-24T06:23:53;3.70;;;1.50;;
76393;SDS011;65216;51.090;-115.352;2023-06-24T06:26:20;2.90;;;1.10;;
76393;SDS011;65216;51.090;-115.352;2023-06-24T06:28:48;3.20;;;1.20;;
76393;SDS011;65216;51.090;-115.352;2023-06-24T06:31:16;3.00;;;1.40;;
76393;SDS011;65216;51.090;-115.352;2023-06-24T06:33:43;2.40;;;1.10;;
76393;SDS011;65216;51.090;-115.352;2023-06-24T06:36:10;2.40;;;1.30;;
76393;SDS011;65216;51.090;-115.352;2023-06-24T06:38:37;3.40;;;1.40;;
76393;SDS011;65216;51.090;-115.352;2023-06-24T06:41:04;2.70;;;1.10;;
76393;SDS011;65216;51.090;-115.352;2023-06-24T06:43:34;4.70;;;1.30;;
76393;SDS011;65216;51.090;-115.352;2023-06-24T06:46:01;4.40;;;1.10;;
76393;SDS011;65216;51.090;-115.352;2023-06-24T06:48:28;3.10;;;1.40;;
76393;SDS011;65216;51.090;-115.352;2023-06-24T06:50:55;2.10;;;1.00;;
76393;SDS011;65216;51.090;-115.352;2023-06-24T06:53:22;3.40;;;1.40;;
76393;SDS011;65216;51.090;-115.352;2023-06-24T06:55:48;2.60;;;1.30;;
76393;SDS011;65216;51.090;-115.352;2023-06-24T06:58:18;2.90;;;1.30;;
76393;SDS011;65216;51.090;-115.352;2023-06-24T07:00:45;2.80;;;1.30;;
76393;SDS011;65216;51.090;-115.352;2023-06-24T07:03:12;2.80;;;1.20;;
76393;SDS011;65216;51.090;-115.352;2023-06-24T07:05:39;2.90;;;1.40;;
76393;SDS011;65216;51.090;-115.352;2023-06-24T07:08:07;3.10;;;1.40;;
76393;SDS011;65216;51.090;-115.352;2023-06-24T07:10:34;1.90;;;1.00;;
76393;SDS011;65216;51.090;-115.352;2023-06-24T07:13:01;3.10;;;1.20;;
76393;SDS011;65216;51.090;-115.352;2023-06-24T07:15:28;3.20;;;1.30;;
76393;SDS011;65216;51.090;-115.352;2023-06-24T07:17:57;2.60;;;1.40;;
76393;SDS011;65216;51.090;-115.352;2023-06-24T07:20:24;2.50;;;1.20;;
76393;SDS011;65216;51.090;-115.352;2023-06-24T07:22:54;2.90;;;1.30;;
76393;SDS011;65216;51.090;-115.352;2023-06-24T07:25:23;2.50;;;1.20;;
76393;SDS011;65216;51.090;-115.352;2023-06-24T07:27:54;2.40;;;1.10;;
76393;SDS011;65216;51.090;-115.352;2023-06-24T07:30:21;3.40;;;1.20;;
76393;SDS011;65216;51.090;-115.352;2023-06-24T07:32:48;2.80;;;1.60;;
76393;SDS011;65216;51.090;-115.352;2023-06-24T07:35:15;2.50;;;1.20;;
76393;SDS011;65216;51.090;-115.352;2023-06-24T07:37:45;3.50;;;1.20;;
76393;SDS011;65216;51.090;-115.352;2023-06-24T07:40:12;2.80;;;1.30;;
76393;SDS011;65216;51.090;-115.352;2023-06-24T07:42:41;2.40;;;1.20;;
76393;SDS011;65216;51.090;-115.352;2023-06-24T07:45:08;2.20;;;1.10;;
76393;SDS011;65216;51.090;-115.352;2023-06-24T07:47:36;2.30;;;1.20;;
76393;SDS011;65216;51.090;-115.352;2023-06-24T07:50:03;3.40;;;1.40;;
76393;SDS011;65216;51.090;-115.352;2023-06-24T07:52:35;2.90;;;1.30;;
76393;SDS011;65216;51.090;-115.352;2023-06-24T07:55:01;2.60;;;1.20;;
76393;SDS011;65216;51.090;-115.352;2023-06-24T07:57:29;2.60;;;1.50;;
76393;SDS011;65216;51.090;-115.352;2023-06-24T07:59:56;2.50;;;1.20;;
76393;SDS011;65216;51.090;-115.352;2023-06-24T08:02:23;3.60;;;1.30;;
76393;SDS011;65216;51.090;-115.352;2023-06-24T08:04:50;2.10;;;1.10;;
76393;SDS011;65216;51.090;-115.352;2023-06-24T08:07:20;2.90;;;1.20;;
76393;SDS011;65216;51.090;-115.352;2023-06-24T08:09:47;2.60;;;1.30;;
76393;SDS011;65216;51.090;-115.352;2023-06-24T08:12:14;2.50;;;1.20;;
76393;SDS011;65216;51.090;-115.352;2023-06-24T08:14:41;3.70;;;1.40;;
76393;SDS011;65216;51.090;-115.352;2023-06-24T08:17:07;2.60;;;1.20;;
76393;SDS011;65216;51.090;-115.352;2023-06-24T08:19:34;3.60;;;1.20;;
76393;SDS011;65216;51.090;-115.352;2023-06-24T08:22:01;2.30;;;1.00;;
76393;SDS011;65216;51.090;-115.352;2023-06-24T08:24:29;2.80;;;1.30;;
76393;SDS011;65216;51.090;-115.352;2023-06-24T08:26:56;3.50;;;1.40;;
76393;SDS011;65216;51.090;-115.352;2023-06-24T08:29:23;2.60;;;1.20;;
76393;SDS011;65216;51.090;-115.352;2023-06-24T08:31:50;2.00;;;1.10;;
76393;SDS011;65216;51.090;-115.352;2023-06-24T08:34:17;1.60;;;0.90;;
76393;SDS011;65216;51.090;-115.352;2023-06-24T08:36:44;2.70;;;1.20;;
76393;SDS011;65216;51.090;-115.352;2023-06-24T08:39:10;2.60;;;1.10;;
76393;SDS011;65216;51.090;-115.352;2023-06-24T08:41:40;2.10;;;1.00;;
76393;SDS011;65216;51.090;-115.352;2023-06-24T08:44:07;2.30;;;1.10;;
76393;SDS011;65216;51.090;-115.352;2023-06-24T08:46:37;2.60;;;1.10;;
76393;SDS011;65216;51.090;-115.352;2023-06-24T08:52:13;2.50;;;1.10;;
76393;SDS011;65216;51.090;-115.352;2023-06-24T08:54:46;2.70;;;1.00;;
76393;SDS011;65216;51.090;-115.352;2023-06-24T08:57:17;2.70;;;1.00;;
76393;SDS011;65216;51.090;-115.352;2023-06-24T08:59:44;1.50;;;0.80;;
76393;SDS011;65216;51.090;-115.352;2023-06-24T09:02:12;1.80;;;1.00;;
76393;SDS011;65216;51.090;-115.352;2023-06-24T09:04:40;1.70;;;0.90;;
76393;SDS011;65216;51.090;-115.352;2023-06-24T09:07:07;1.90;;;0.90;;
76393;SDS011;65216;51.090;-115.352;2023-06-24T09:09:42;2.40;;;1.10;;
76393;SDS011;65216;51.090;-115.352;2023-06-24T09:14:41;1.90;;;0.80;;
76393;SDS011;65216;51.090;-115.352;2023-06-24T09:17:09;2.90;;;1.10;;
76393;SDS011;65216;51.090;-115.352;2023-06-24T09:19:35;2.00;;;1.00;;
76393;SDS011;65216;51.090;-115.352;2023-06-24T09:22:09;2.40;;;1.00;;
76393;SDS011;65216;51.090;-115.352;2023-06-24T09:24:46;2.20;;;0.90;;
76393;SDS011;65216;51.090;-115.352;2023-06-24T09:27:14;2.10;;;1.00;;
76393;SDS011;65216;51.090;-115.352;2023-06-24T09:29:43;3.50;;;1.20;;
76393;SDS011;65216;51.090;-115.352;2023-06-24T09:32:10;1.40;;;0.80;;
76393;SDS011;65216;51.090;-115.352;2023-06-24T09:34:38;3.20;;;1.20;;
76393;SDS011;65216;51.090;-115.352;2023-06-24T09:37:05;2.80;;;1.00;;
76393;SDS011;65216;51.090;-115.352;2023-06-24T09:39:37;2.30;;;0.90;;
76393;SDS011;65216;51.090;-115.352;2023-06-24T09:42:06;2.10;;;1.00;;
76393;SDS011;65216;51.090;-115.352;2023-06-24T09:44:33;2.40;;;1.00;;
76393;SDS011;65216;51.090;-115.352;2023-06-24T09:47:01;2.40;;;1.00;;
76393;SDS011;65216;51.090;-115.352;2023-06-24T09:49:31;2.30;;;0.90;;
76393;SDS011;65216;51.090;-115.352;2023-06-24T09:52:01;2.20;;;1.00;;
76393;SDS011;65216;51.090;-115.352;2023-06-24T09:54:30;2.10;;;0.90;;
76393;SDS011;65216;51.090;-115.352;2023-06-24T09:57:02;1.90;;;0.90;;
76393;SDS011;65216;51.090;-115.352;2023-06-24T09:59:36;2.30;;;1.10;;
76393;SDS011;65216;51.090;-115.352;2023-06-24T10:02:05;2.30;;;1.10;;
76393;SDS011;65216;51.090;-115.352;2023-06-24T10:04:41;2.40;;;1.10;;
76393;SDS011;65216;51.090;-115.352;2023-06-24T10:07:09;2.00;;;1.00;;
76393;SDS011;65216;51.090;-115.352;2023-06-24T10:09:38;1.80;;;0.90;;
76393;SDS011;65216;51.090;-115.352;2023-06-24T10:12:05;2.30;;;1.10;;
76393;SDS011;65216;51.090;-115.352;2023-06-24T10:14:33;2.30;;;1.10;;
76393;SDS011;65216;51.090;-115.352;2023-06-24T10:17:06;2.20;;;0.90;;
76393;SDS011;65216;51.090;-115.352;2023-06-24T10:19:40;2.80;;;1.10;;
76393;SDS011;65216;51.090;-115.352;2023-06-24T10:22:11;1.80;;;0.90;;
76393;SDS011;65216;51.090;-115.352;2023-06-24T10:24:42;1.90;;;0.90;;
76393;SDS011;65216;51.090;-115.352;2023-06-24T10:27:15;1.70;;;0.90;;
76393;SDS011;65216;51.090;-115.352;2023-06-24T10:29:47;2.20;;;0.90;;
76393;SDS011;65216;51.090;-115.352;2023-06-24T10:32:19;1.70;;;0.90;;
76393;SDS011;65216;51.090;-115.352;2023-06-24T10:34:57;2.20;;;1.10;;
76393;SDS011;65216;51.090;-115.352;2023-06-24T10:37:26;2.30;;;0.90;;
76393;SDS011;65216;51.090;-115.352;2023-06-24T10:40:02;1.80;;;0.90;;
76393;SDS011;65216;51.090;-115.352;2023-06-24T10:42:42;2.20;;;1.00;;
76393;SDS011;65216;51.090;-115.352;2023-06-24T10:47:37;1.90;;;0.90;;
76393;SDS011;65216;51.090;-115.352;2023-06-24T10:50:07;2.20;;;0.90;;
76393;SDS011;65216;51.090;-115.352;2023-06-24T10:52:43;2.30;;;1.00;;
76393;SDS011;65216;51.090;-115.352;2023-06-24T10:55:17;2.00;;;1.00;;
76393;SDS011;65216;51.090;-115.352;2023-06-24T10:57:45;2.50;;;1.20;;
76393;SDS011;65216;51.090;-115.352;2023-06-24T11:00:13;2.50;;;1.00;;
76393;SDS011;65216;51.090;-115.352;2023-06-24T11:02:42;2.00;;;0.90;;
76393;SDS011;65216;51.090;-115.352;2023-06-24T11:05:10;2.60;;;1.10;;
76393;SDS011;65216;51.090;-115.352;2023-06-24T11:07:40;1.70;;;0.80;;
76393;SDS011;65216;51.090;-115.352;2023-06-24T11:10:11;2.40;;;1.00;;
76393;SDS011;65216;51.090;-115.352;2023-06-24T11:12:42;2.90;;;1.00;;
76393;SDS011;65216;51.090;-115.352;2023-06-24T11:15:11;2.50;;;1.10;;
76393;SDS011;65216;51.090;-115.352;2023-06-24T11:17:40;1.90;;;1.10;;
76393;SDS011;65216;51.090;-115.352;2023-06-24T11:20:13;3.70;;;1.30;;
76393;SDS011;65216;51.090;-115.352;2023-06-24T11:22:42;2.40;;;1.10;;
76393;SDS011;65216;51.090;-115.352;2023-06-24T11:25:18;2.40;;;1.00;;
76393;SDS011;65216;51.090;-115.352;2023-06-24T11:27:46;2.30;;;1.10;;
76393;SDS011;65216;51.090;-115.352;2023-06-24T11:30:13;2.50;;;1.30;;
76393;SDS011;65216;51.090;-115.352;2023-06-24T11:32:43;2.20;;;1.10;;
76393;SDS011;65216;51.090;-115.352;2023-06-24T11:35:16;2.40;;;1.10;;
76393;SDS011;65216;51.090;-115.352;2023-06-24T11:37:45;2.20;;;1.10;;
76393;SDS011;65216;51.090;-115.352;2023-06-24T11:40:16;2.40;;;1.00;;
76393;SDS011;65216;51.090;-115.352;2023-06-24T11:42:45;2.40;;;1.20;;
76393;SDS011;65216;51.090;-115.352;2023-06-24T11:45:14;2.30;;;1.10;;
76393;SDS011;65216;51.090;-115.352;2023-06-24T11:47:45;2.90;;;1.20;;
76393;SDS011;65216;51.090;-115.352;2023-06-24T11:50:12;2.60;;;1.20;;
76393;SDS011;65216;51.090;-115.352;2023-06-24T11:55:23;2.00;;;1.10;;
76393;SDS011;65216;51.090;-115.352;2023-06-24T12:00:25;2.10;;;1.00;;
76393;SDS011;65216;51.090;-115.352;2023-06-24T12:03:05;2.30;;;1.30;;
76393;SDS011;65216;51.090;-115.352;2023-06-24T12:05:37;1.80;;;1.00;;
76393;SDS011;65216;51.090;-115.352;2023-06-24T12:08:11;2.90;;;1.40;;
76393;SDS011;65216;51.090;-115.352;2023-06-24T12:10:43;2.50;;;1.10;;
76393;SDS011;65216;51.090;-115.352;2023-06-24T12:13:12;3.20;;;1.40;;
76393;SDS011;65216;51.090;-115.352;2023-06-24T12:15:39;1.90;;;1.20;;
76393;SDS011;65216;51.090;-115.352;2023-06-24T12:18:06;2.60;;;1.20;;
76393;SDS011;65216;51.090;-115.352;2023-06-24T12:20:34;2.40;;;1.10;;
76393;SDS011;65216;51.090;-115.352;2023-06-24T12:23:02;2.50;;;1.10;;
76393;SDS011;65216;51.090;-115.352;2023-06-24T12:25:29;2.10;;;1.10;;
76393;SDS011;65216;51.090;-115.352;2023-06-24T12:27:59;2.60;;;1.10;;
76393;SDS011;65216;51.090;-115.352;2023-06-24T12:30:26;3.00;;;1.30;;
76393;SDS011;65216;51.090;-115.352;2023-06-24T12:32:56;2.80;;;1.30;;
76393;SDS011;65216;51.090;-115.352;2023-06-24T12:35:28;2.70;;;1.30;;
76393;SDS011;65216;51.090;-115.352;2023-06-24T12:37:57;2.30;;;1.10;;
76393;SDS011;65216;51.090;-115.352;2023-06-24T12:40:24;3.10;;;1.30;;
76393;SDS011;65216;51.090;-115.352;2023-06-24T12:42:51;2.80;;;1.20;;
76393;SDS011;65216;51.090;-115.352;2023-06-24T12:45:18;2.30;;;1.20;;
76393;SDS011;65216;51.090;-115.352;2023-06-24T12:47:45;2.50;;;1.20;;
76393;SDS011;65216;51.090;-115.352;2023-06-24T12:50:12;2.60;;;1.20;;
76393;SDS011;65216;51.090;-115.352;2023-06-24T12:52:39;2.20;;;1.10;;
76393;SDS011;65216;51.090;-115.352;2023-06-24T12:55:09;2.50;;;1.20;;
76393;SDS011;65216;51.090;-115.352;2023-06-24T12:57:38;2.80;;;1.40;;
76393;SDS011;65216;51.090;-115.352;2023-06-24T13:00:06;3.00;;;1.20;;
76393;SDS011;65216;51.090;-115.352;2023-06-24T13:02:34;3.00;;;1.40;;
76393;SDS011;65216;51.090;-115.352;2023-06-24T13:05:02;2.70;;;1.30;;
76393;SDS011;65216;51.090;-115.352;2023-06-24T13:07:29;2.50;;;1.20;;
76393;SDS011;65216;51.090;-115.352;2023-06-24T13:09:57;2.50;;;1.10;;
76393;SDS011;65216;51.090;-115.352;2023-06-24T13:12:25;3.50;;;1.20;;
76393;SDS011;65216;51.090;-115.352;2023-06-24T13:14:54;2.70;;;1.30;;
76393;SDS011;65216;51.090;-115.352;2023-06-24T13:17:21;2.80;;;1.40;;
76393;SDS011;65216;51.090;-115.352;2023-06-24T13:19:48;2.40;;;1.20;;
76393;SDS011;65216;51.090;-115.352;2023-06-24T13:22:15;2.60;;;1.30;;
76393;SDS011;65216;51.090;-115.352;2023-06-24T13:24:42;2.20;;;1.20;;
76393;SDS011;65216;51.090;-115.352;2023-06-24T13:27:09;2.40;;;1.30;;
76393;SDS011;65216;51.090;-115.352;2023-06-24T13:29:36;2.60;;;1.10;;
76393;SDS011;65216;51.090;-115.352;2023-06-24T13:32:04;2.30;;;1.20;;
76393;SDS011;65216;51.090;-115.352;2023-06-24T13:34:31;2.40;;;1.20;;
76393;SDS011;65216;51.090;-115.352;2023-06-24T13:36:58;2.50;;;1.30;;
76393;SDS011;65216;51.090;-115.352;2023-06-24T13:39:25;3.00;;;1.40;;
76393;SDS011;65216;51.090;-115.352;2023-06-24T13:41:53;2.60;;;1.10;;
76393;SDS011;65216;51.090;-115.352;2023-06-24T13:44:22;2.60;;;1.30;;
76393;SDS011;65216;51.090;-115.352;2023-06-24T13:46:50;2.90;;;1.30;;
76393;SDS011;65216;51.090;-115.352;2023-06-24T13:49:19;2.80;;;1.30;;
76393;SDS011;65216;51.090;-115.352;2023-06-24T13:51:49;2.60;;;1.30;;
76393;SDS011;65216;51.090;-115.352;2023-06-24T13:54:15;2.20;;;1.10;;
76393;SDS011;65216;51.090;-115.352;2023-06-24T13:56:46;3.10;;;1.40;;
76393;SDS011;65216;51.090;-115.352;2023-06-24T13:59:12;3.30;;;1.50;;
76393;SDS011;65216;51.090;-115.352;2023-06-24T14:01:39;3.30;;;1.40;;
76393;SDS011;65216;51.090;-115.352;2023-06-24T14:04:07;3.20;;;1.60;;
76393;SDS011;65216;51.090;-115.352;2023-06-24T14:06:34;3.00;;;1.60;;
76393;SDS011;65216;51.090;-115.352;2023-06-24T14:09:01;3.60;;;1.50;;
76393;SDS011;65216;51.090;-115.352;2023-06-24T14:11:28;2.90;;;1.60;;
76393;SDS011;65216;51.090;-115.352;2023-06-24T14:13:55;3.10;;;1.60;;
76393;SDS011;65216;51.090;-115.352;2023-06-24T14:16:21;3.00;;;1.40;;
76393;SDS011;65216;51.090;-115.352;2023-06-24T14:18:49;2.80;;;1.50;;
76393;SDS011;65216;51.090;-115.352;2023-06-24T14:21:16;3.10;;;1.60;;
76393;SDS011;65216;51.090;-115.352;2023-06-24T14:23:46;2.70;;;1.50;;
76393;SDS011;65216;51.090;-115.352;2023-06-24T14:26:15;3.10;;;1.70;;
76393;SDS011;65216;51.090;-115.352;2023-06-24T14:28:43;2.90;;;1.50;;
76393;SDS011;65216;51.090;-115.352;2023-06-24T14:31:11;4.60;;;1.60;;
76393;SDS011;65216;51.090;-115.352;2023-06-24T14:33:38;3.50;;;1.70;;
76393;SDS011;65216;51.090;-115.352;2023-06-24T14:36:05;3.20;;;1.70;;
76393;SDS011;65216;51.090;-115.352;2023-06-24T14:38:37;3.60;;;1.70;;
76393;SDS011;65216;51.090;-115.352;2023-06-24T14:41:04;3.20;;;1.70;;